Hato La Chaconera Airport

Jump to: basic info | weather | comments

Related pages: nearby airports | nearby navaids | notams | map

Basic information (top)

Codes: SVHN
Location: lon 8.105410, lat -68.719101, elev 208 ft / 63 m msl
Status: small_airport

Weather (top)

Current conditions for San Fernando De Apure Airport 77nm (143km) E (rec'd 2014/04/24 23:00Z):

SVSR 242300Z /////KT 9999 BKN016 33/00 Q1008

Airport forecast for Barquisimeto International Airport 122nm (227km) NNW (rec'd 2012/04/15 12:48Z):

TAF SVBM 151045Z 1512/1612 11005KT 9999 SCT016 TX29/1800Z TN18/0700Z 
      BECMG 1514/1516 13008KT 9999 BKN013 
      BECMG 1517/1520 08008KT 9999 OVC013

Latest comments (top)

No comments yet for Hato La Chaconera Airport

More... (top)

See also NOTAMs and nearby airports and navaids, or visit the Hato La Chaconera Airport page at the main OurAirports website..